Time;durP1;ratioP1;P1;durP2;ratioP2;P2;SDS_P1;SDS_P2;PMS_P1;PMS_P2;Temp;Humidity;BMP_temperature;BMP_pressure;BME280_temperature;BME280_humidity;BME280_pressure;Samples;Min_cycle;Max_cycle;Signal;HPM_P1;HPM_P2
2023/07/01 00:01:41;;;;;;;16.50;4.75;;;16.50;99.90;;;;;;5038994;28;20202;-89
2023/07/01 00:04:08;;;;;;;20.85;4.72;;;16.50;57.20;;;;;;5025862;28;20220;-91
2023/07/01 00:06:35;;;;;;;12.02;4.47;;;16.50;48.60;;;;;;5025903;28;20610;-90
2023/07/01 00:09:02;;;;;;;22.55;5.35;;;16.50;30.90;;;;;;5025620;28;20194;-89
2023/07/01 00:11:30;;;;;;;18.02;4.88;;;16.40;57.40;;;;;;5026578;28;20266;-91
2023/07/01 00:13:58;;;;;;;17.65;4.90;;;16.50;58.60;;;;;;5027461;28;20225;-90
2023/07/01 00:16:27;;;;;;;15.02;4.65;;;16.50;70.40;;;;;;5027184;28;20333;-89
2023/07/01 00:18:54;;;;;;;14.00;4.88;;;16.50;87.10;;;;;;5027854;28;20202;-91
2023/07/01 00:21:21;;;;;;;15.10;4.68;;;16.40;98.30;;;;;;5045710;28;20208;-90
2023/07/01 00:23:49;;;;;;;18.42;5.43;;;16.40;99.90;;;;;;5034068;28;20194;-91
2023/07/01 00:26:16;;;;;;;18.80;4.90;;;16.30;99.90;;;;;;5028930;28;20206;-90
2023/07/01 00:28:43;;;;;;;15.25;4.90;;;16.20;99.90;;;;;;5033011;28;20656;-91
2023/07/01 00:31:12;;;;;;;13.48;5.47;;;16.10;99.90;;;;;;5037643;28;20216;-91
2023/07/01 00:33:39;;;;;;;16.45;5.43;;;16.00;99.90;;;;;;5029175;28;20209;-92
2023/07/01 00:36:07;;;;;;;15.00;5.43;;;15.90;99.90;;;;;;5026792;28;20301;-92
2023/07/01 00:38:34;;;;;;;17.10;5.30;;;15.90;99.90;;;;;;5026572;28;20201;-91
2023/07/01 00:41:01;;;;;;;15.30;5.18;;;15.80;99.90;;;;;;5016419;28;20268;-90
2023/07/01 00:43:28;;;;;;;14.80;4.88;;;15.80;99.90;;;;;;5027078;28;20213;-91
2023/07/01 00:45:56;;;;;;;11.27;5.38;;;15.70;99.90;;;;;;5028072;28;20198;-89
2023/07/01 00:48:27;;;;;;;9.77;5.00;;;15.70;99.90;;;;;;5039105;28;20222;-90
2023/07/01 00:50:55;;;;;;;8.60;5.25;;;15.70;1.00;;;;;;5051259;28;20198;-93
2023/07/01 00:53:23;;;;;;;14.50;5.25;;;15.60;99.90;;;;;;5048031;28;20261;-90
2023/07/01 00:55:51;;;;;;;11.52;5.15;;;15.60;99.90;;;;;;5048991;28;20205;-92
2023/07/01 00:58:18;;;;;;;13.10;5.25;;;15.50;99.90;;;;;;5050242;28;20204;-91
2023/07/01 01:00:45;;;;;;;11.93;5.40;;;15.40;99.90;;;;;;5049178;28;20209;-91
2023/07/01 01:03:22;;;;;;;11.35;5.30;;;15.40;99.90;;;;;;5048722;28;20209;-92
2023/07/01 01:05:58;;;;;;;9.95;5.95;;;15.40;1.00;;;;;;5050278;28;20204;-92
2023/07/01 01:08:32;;;;;;;14.07;6.30;;;15.40;1.00;;;;;;5051805;28;20199;-92
2023/07/01 01:11:04;;;;;;;11.93;5.50;;;15.40;1.00;;;;;;5052941;28;20205;-90
2023/07/01 01:13:34;;;;;;;12.43;5.82;;;15.40;1.00;;;;;;5050646;28;20197;-91
2023/07/01 01:16:03;;;;;;;13.93;5.57;;;15.40;1.00;;;;;;5052160;28;20224;-92
2023/07/01 01:18:33;;;;;;;14.25;5.30;;;15.40;1.00;;;;;;5053033;28;20201;-93
2023/07/01 01:21:04;;;;;;;12.82;5.18;;;15.50;1.00;;;;;;5057300;28;20220;-91
2023/07/01 01:23:39;;;;;;;10.73;5.25;;;15.50;1.00;;;;;;5051610;28;20200;-92
2023/07/01 01:26:10;;;;;;;9.25;5.80;;;15.60;99.90;;;;;;5051127;28;20189;-90
2023/07/01 01:28:38;;;;;;;10.85;5.45;;;15.70;99.90;;;;;;5052865;28;20204;-92
2023/07/01 01:31:06;;;;;;;11.45;5.13;;;15.70;99.90;;;;;;5055587;28;20194;-91
2023/07/01 01:33:33;;;;;;;9.00;5.55;;;15.70;99.90;;;;;;5052079;28;20205;-92
2023/07/01 01:36:10;;;;;;;13.90;5.20;;;15.70;99.90;;;;;;5053155;28;20220;-90
2023/07/01 01:38:41;;;;;;;8.85;5.65;;;15.70;99.90;;;;;;5060124;28;20205;-91
2023/07/01 01:41:14;;;;;;;11.30;5.57;;;15.70;99.90;;;;;;5043209;28;20188;-95
2023/07/01 01:43:49;;;;;;;12.68;5.32;;;15.60;99.90;;;;;;5054412;28;20193;-93
2023/07/01 01:46:18;;;;;;;8.18;5.55;;;15.60;99.90;;;;;;5054241;28;20208;-93
2023/07/01 01:48:45;;;;;;;13.18;5.55;;;15.60;99.90;;;;;;5041654;28;20238;-94
2023/07/01 01:51:16;;;;;;;13.52;6.13;;;15.60;99.90;;;;;;5034106;28;20200;-91
2023/07/01 01:53:44;;;;;;;18.90;6.18;;;15.60;99.90;;;;;;5033725;28;20201;-94
2023/07/01 01:56:12;;;;;;;12.68;6.05;;;15.60;99.90;;;;;;5033135;28;20196;-92
2023/07/01 01:58:40;;;;;;;10.70;6.35;;;15.60;1.00;;;;;;5042731;28;20194;-92
2023/07/01 02:01:08;;;;;;;11.55;5.55;;;15.60;1.00;;;;;;5033980;28;20188;-91
2023/07/01 02:03:36;;;;;;;13.30;5.68;;;15.60;1.00;;;;;;5032411;28;20599;-94
2023/07/01 02:06:03;;;;;;;13.75;5.60;;;15.60;1.00;;;;;;5032129;28;20271;-92
2023/07/01 02:08:30;;;;;;;8.93;5.60;;;15.50;1.00;;;;;;5031762;28;20193;-92
2023/07/01 02:10:57;;;;;;;9.02;5.82;;;15.50;1.00;;;;;;5037610;28;20201;-91
2023/07/01 02:13:25;;;;;;;10.30;5.70;;;15.50;1.00;;;;;;5031232;28;20264;-90
2023/07/01 02:15:52;;;;;;;16.35;6.78;;;15.40;1.00;;;;;;5030760;28;20194;-92
2023/07/01 02:18:21;;;;;;;10.20;5.70;;;15.40;1.00;;;;;;5015397;28;20215;-91
2023/07/01 02:20:48;;;;;;;11.27;5.95;;;15.40;1.00;;;;;;5026125;28;20202;-93
2023/07/01 02:23:15;;;;;;;12.93;5.57;;;15.30;1.00;;;;;;5030938;28;20201;-92
2023/07/01 02:25:43;;;;;;;9.43;5.65;;;15.30;1.00;;;;;;5030373;28;20205;-92
2023/07/01 02:28:10;;;;;;;11.93;5.95;;;15.30;1.00;;;;;;5031443;28;20717;-92
2023/07/01 02:30:37;;;;;;;8.98;5.78;;;15.30;1.00;;;;;;5044749;28;20205;-93
2023/07/01 02:33:04;;;;;;;12.90;6.10;;;15.20;1.00;;;;;;5032403;28;20205;-92
2023/07/01 02:35:33;;;;;;;10.10;6.00;;;15.20;1.00;;;;;;5029063;28;20268;-91
2023/07/01 02:38:00;;;;;;;10.95;5.60;;;15.20;1.00;;;;;;5028878;28;20279;-93
2023/07/01 02:40:27;;;;;;;11.88;6.15;;;15.20;1.00;;;;;;5036305;28;20201;-90
2023/07/01 02:42:54;;;;;;;12.82;5.82;;;15.20;1.00;;;;;;5029226;28;20247;-90
2023/07/01 02:45:21;;;;;;;14.88;5.90;;;15.20;1.00;;;;;;5027934;28;20229;-93
2023/07/01 02:47:49;;;;;;;11.43;5.47;;;15.30;1.00;;;;;;5037525;28;20229;-90
2023/07/01 02:50:16;;;;;;;10.43;5.95;;;15.30;1.00;;;;;;5039277;28;20208;-92
2023/07/01 02:52:44;;;;;;;8.90;5.53;;;15.30;1.00;;;;;;5016128;28;20205;-92
2023/07/01 02:55:11;;;;;;;8.20;5.28;;;15.30;1.00;;;;;;5028683;28;20205;-89
2023/07/01 02:57:38;;;;;;;11.55;5.60;;;15.30;1.00;;;;;;5027238;28;20272;-93
2023/07/01 03:00:10;;;;;;;10.27;5.60;;;15.30;1.00;;;;;;5034702;28;20428;-89
2023/07/01 03:02:37;;;;;;;12.43;5.18;;;15.30;1.00;;;;;;5026280;28;20232;-91
2023/07/01 03:05:07;;;;;;;9.15;5.28;;;15.30;1.00;;;;;;5025375;28;20247;-90
2023/07/01 03:07:34;;;;;;;10.85;5.38;;;15.30;1.00;;;;;;5025170;28;20652;-92
2023/07/01 03:10:03;;;;;;;10.05;5.10;;;15.30;1.00;;;;;;5036683;28;20197;-92
2023/07/01 03:12:30;;;;;;;10.68;5.10;;;15.40;1.00;;;;;;5026329;28;20197;-90
2023/07/01 03:14:57;;;;;;;8.75;5.70;;;15.40;1.00;;;;;;5026427;28;20664;-94
2023/07/01 03:17:25;;;;;;;12.43;5.30;;;15.50;1.00;;;;;;5026843;28;20273;-92
2023/07/01 03:19:51;;;;;;;8.57;5.20;;;15.50;1.00;;;;;;5026149;28;20237;-92
2023/07/01 03:22:18;;;;;;;10.32;5.38;;;15.60;1.00;;;;;;5024879;28;20214;-90
2023/07/01 03:24:46;;;;;;;9.15;5.20;;;15.60;99.90;;;;;;5024750;28;20259;-94
2023/07/01 03:27:14;;;;;;;6.43;5.35;;;15.70;99.90;;;;;;5025108;28;20196;-90
2023/07/01 03:29:41;;;;;;;10.32;5.53;;;15.80;99.90;;;;;;5030123;28;20202;-92
2023/07/01 03:32:09;;;;;;;9.18;5.43;;;15.90;99.90;;;;;;5025024;28;20665;-93
2023/07/01 03:34:38;;;;;;;7.93;5.13;;;16.00;99.90;;;;;;5027294;28;20668;-91
2023/07/01 03:37:06;;;;;;;6.05;5.43;;;16.10;99.90;;;;;;5029029;28;20225;-92
2023/07/01 03:39:33;;;;;;;7.75;4.95;;;16.30;99.90;;;;;;5037520;28;20250;-92
2023/07/01 03:42:00;;;;;;;6.28;4.90;;;16.50;99.90;;;;;;5031753;28;20202;-92
2023/07/01 03:44:28;;;;;;;14.10;5.88;;;16.60;86.00;;;;;;5028862;28;20193;-93
2023/07/01 03:46:55;;;;;;;7.35;5.63;;;16.70;1.00;;;;;;5027603;28;20198;-90
2023/07/01 03:49:22;;;;;;;10.43;5.93;;;16.80;1.00;;;;;;5048298;28;20710;-93
2023/07/01 03:51:51;;;;;;;9.57;5.35;;;16.80;1.00;;;;;;5057405;28;20193;-93
2023/07/01 03:54:18;;;;;;;7.82;4.85;;;16.80;1.00;;;;;;5050775;28;20201;-92
2023/07/01 03:56:45;;;;;;;9.15;5.32;;;16.90;1.00;;;;;;5047212;28;20684;-92
2023/07/01 03:59:12;;;;;;;9.27;5.40;;;16.90;1.00;;;;;;5046966;28;20189;-92
2023/07/01 04:01:41;;;;;;;7.95;5.53;;;17.00;1.00;;;;;;5047370;28;20252;-91
2023/07/01 04:04:08;;;;;;;8.45;5.50;;;17.10;1.00;;;;;;5047001;28;20209;-90
2023/07/01 04:06:35;;;;;;;8.00;5.53;;;17.20;1.00;;;;;;5045266;28;20224;-92
2023/07/01 04:09:02;;;;;;;8.52;5.80;;;17.30;1.00;;;;;;5051386;28;20617;-92
2023/07/01 04:11:30;;;;;;;12.68;6.10;;;17.40;1.00;;;;;;5052915;28;20202;-90
2023/07/01 04:13:58;;;;;;;8.50;6.10;;;17.40;1.00;;;;;;5046036;28;20205;-92
2023/07/01 04:16:25;;;;;;;8.27;5.57;;;17.60;1.00;;;;;;5028810;28;20198;-94
2023/07/01 04:18:54;;;;;;;8.30;5.50;;;17.80;1.00;;;;;;5048657;28;20212;-92
2023/07/01 04:21:21;;;;;;;13.68;6.20;;;17.90;99.90;;;;;;5044276;28;20255;-93
2023/07/01 04:23:48;;;;;;;8.27;5.35;;;18.00;99.90;;;;;;5043641;28;20628;-91
2023/07/01 04:26:15;;;;;;;8.45;5.70;;;18.20;1.00;;;;;;5043322;28;20193;-93
2023/07/01 04:28:42;;;;;;;6.20;5.32;;;18.40;99.90;;;;;;5047524;28;20203;-93
2023/07/01 04:31:09;;;;;;;7.13;5.03;;;18.50;99.90;;;;;;5043870;28;20186;-92
2023/07/01 04:33:36;;;;;;;7.28;5.05;;;18.70;99.90;;;;;;5040333;28;20190;-91
2023/07/01 04:36:05;;;;;;;8.38;4.95;;;19.20;1.00;;;;;;5038837;28;20603;-92
2023/07/01 04:38:32;;;;;;;8.05;4.65;;;19.80;99.90;;;;;;5037610;28;20209;-92
2023/07/01 04:40:59;;;;;;;7.05;4.50;;;20.40;99.90;;;;;;5041241;28;20201;-93
2023/07/01 04:43:26;;;;;;;4.95;4.10;;;20.90;94.00;;;;;;5021041;28;20190;-92
2023/07/01 04:45:53;;;;;;;5.40;4.20;;;21.30;1.00;;;;;;5036986;28;20190;-92
2023/07/01 04:48:20;;;;;;;5.95;3.83;;;21.50;1.00;;;;;;5036712;28;20234;-92
2023/07/01 04:50:47;;;;;;;4.10;3.20;;;21.80;1.00;;;;;;5040011;28;20197;-91
2023/07/01 04:53:15;;;;;;;7.80;3.70;;;22.10;99.90;;;;;;5036556;28;20232;-92
2023/07/01 04:55:42;;;;;;;6.38;3.80;;;22.40;99.90;;;;;;5035905;28;20244;-91
2023/07/01 04:58:09;;;;;;;4.95;3.50;;;22.60;1.00;;;;;;5035956;28;20213;-92
2023/07/01 05:00:37;;;;;;;5.43;3.85;;;22.90;99.90;;;;;;5036109;28;20247;-94
2023/07/01 05:03:04;;;;;;;5.68;3.20;;;23.20;1.00;;;;;;5035896;28;20201;-91
2023/07/01 05:05:31;;;;;;;6.00;3.15;;;23.50;1.00;;;;;;5035679;28;20194;-92
2023/07/01 05:07:58;;;;;;;9.20;3.50;;;23.70;99.90;;;;;;5036720;28;20190;-92
2023/07/01 05:10:27;;;;;;;5.13;3.55;;;23.80;1.00;;;;;;5035724;28;20198;-91
2023/07/01 05:12:54;;;;;;;9.10;3.55;;;23.70;1.00;;;;;;5035892;28;20198;-92
2023/07/01 05:15:21;;;;;;;6.65;3.72;;;23.50;99.90;;;;;;5034931;28;20744;-91
2023/07/01 05:17:48;;;;;;;6.95;3.70;;;23.20;1.00;;;;;;5035559;28;20266;-92
2023/07/01 05:20:14;;;;;;;4.95;3.40;;;22.90;1.00;;;;;;5044806;28;20198;-91
2023/07/01 05:22:42;;;;;;;8.85;3.58;;;22.70;1.00;;;;;;5035140;28;20197;-91
2023/07/01 05:25:09;;;;;;;6.25;3.40;;;22.50;99.90;;;;;;5035327;28;20190;-91
2023/07/01 05:27:37;;;;;;;4.65;2.92;;;22.40;99.90;;;;;;5035054;28;20221;-91
2023/07/01 05:30:06;;;;;;;6.57;3.40;;;22.50;99.90;;;;;;5035583;28;20251;-90
2023/07/01 05:32:33;;;;;;;5.88;3.30;;;22.50;99.90;;;;;;5034978;28;20637;-92
2023/07/01 05:35:00;;;;;;;10.38;3.40;;;22.60;99.90;;;;;;5035079;28;20660;-92
2023/07/01 05:37:27;;;;;;;5.68;3.30;;;22.50;91.10;;;;;;5034979;28;20213;-92
2023/07/01 05:39:53;;;;;;;4.80;3.17;;;22.40;99.90;;;;;;5036538;28;20190;-90
2023/07/01 05:42:20;;;;;;;7.30;3.60;;;22.40;99.90;;;;;;5035171;28;20194;-90
2023/07/01 05:44:49;;;;;;;6.80;3.38;;;22.40;99.90;;;;;;5034697;28;20241;-92
2023/07/01 05:47:16;;;;;;;4.53;3.00;;;22.60;99.90;;;;;;5034432;28;20194;-91
2023/07/01 05:49:42;;;;;;;6.25;3.03;;;22.70;99.90;;;;;;5042901;28;20676;-92
2023/07/01 05:52:09;;;;;;;7.28;3.90;;;22.90;99.90;;;;;;5034566;28;20190;-92
2023/07/01 05:54:36;;;;;;;6.60;4.60;;;23.00;52.00;;;;;;5034893;28;20612;-90
2023/07/01 05:57:04;;;;;;;9.45;5.10;;;23.00;1.00;;;;;;5035173;28;20193;-90
2023/07/01 05:59:31;;;;;;;8.68;4.20;;;23.10;1.00;;;;;;5040123;28;20206;-91
2023/07/01 06:01:59;;;;;;;6.50;3.90;;;23.10;1.00;;;;;;5034605;28;20225;-92
2023/07/01 06:04:26;;;;;;;4.75;3.30;;;23.20;1.00;;;;;;5034316;28;20664;-91
2023/07/01 06:06:53;;;;;;;6.25;3.42;;;23.20;1.00;;;;;;5034929;28;20266;-91
2023/07/01 06:09:20;;;;;;;5.45;3.30;;;23.40;1.00;;;;;;5039141;28;20606;-91
2023/07/01 06:11:47;;;;;;;7.40;3.83;;;23.40;1.00;;;;;;5041398;28;20251;-90
2023/07/01 06:14:13;;;;;;;5.72;3.67;;;23.50;1.00;;;;;;5034546;28;20190;-91
2023/07/01 06:16:40;;;;;;;8.38;3.50;;;23.40;1.00;;;;;;5037797;28;20663;-90
2023/07/01 06:19:09;;;;;;;4.82;3.05;;;23.40;1.00;;;;;;5043406;28;20209;-92
2023/07/01 06:21:36;;;;;;;7.75;3.00;;;23.40;1.00;;;;;;5040101;28;20197;-91
2023/07/01 06:24:04;;;;;;;4.53;2.63;;;23.40;1.00;;;;;;5034652;28;20202;-90
2023/07/01 06:26:31;;;;;;;5.32;2.80;;;23.40;1.00;;;;;;5033852;28;20193;-91
2023/07/01 06:28:57;;;;;;;7.68;3.00;;;23.50;1.00;;;;;;5033893;28;20190;-88
2023/07/01 06:31:24;;;;;;;4.10;2.30;;;23.60;99.90;;;;;;5033793;28;20259;-92
2023/07/01 06:33:51;;;;;;;6.57;3.10;;;23.60;99.90;;;;;;5040650;28;20259;-91
2023/07/01 06:36:20;;;;;;;4.35;2.75;;;23.70;99.90;;;;;;5039652;28;20201;-91
2023/07/01 06:38:48;;;;;;;6.65;2.97;;;23.80;99.90;;;;;;5039572;28;20757;-91
2023/07/01 06:41:15;;;;;;;4.43;2.90;;;23.90;99.90;;;;;;5033760;28;20221;-91
2023/07/01 06:43:42;;;;;;;5.05;3.25;;;23.90;99.90;;;;;;5036550;28;20259;-90
2023/07/01 06:46:09;;;;;;;3.67;3.08;;;23.90;99.90;;;;;;5038481;28;20193;-92
2023/07/01 06:48:36;;;;;;;6.45;3.15;;;24.00;99.90;;;;;;5034974;28;20281;-91
2023/07/01 06:51:04;;;;;;;7.50;3.58;;;24.10;99.90;;;;;;5025681;28;20201;-92
2023/07/01 06:53:33;;;;;;;4.43;2.70;;;24.30;99.90;;;;;;5028586;28;20194;-92
2023/07/01 06:56:00;;;;;;;7.90;3.20;;;24.40;99.90;;;;;;5023512;28;20198;-92
2023/07/01 06:58:26;;;;;;;3.47;2.92;;;24.40;99.90;;;;;;5028371;28;20688;-90
2023/07/01 07:00:53;;;;;;;6.20;3.00;;;24.40;99.90;;;;;;5039442;28;20194;-94
2023/07/01 07:03:21;;;;;;;7.68;3.03;;;24.50;99.90;;;;;;5039920;28;20205;-96
2023/07/01 07:05:48;;;;;;;7.03;3.17;;;24.50;28.40;;;;;;5045095;28;20209;-95
2023/07/01 07:08:15;;;;;;;3.65;2.92;;;24.50;1.00;;;;;;5043639;28;20190;-96
2023/07/01 07:10:44;;;;;;;7.32;2.95;;;24.50;1.00;;;;;;5061409;28;20185;-94
2023/07/01 07:18:22;;;;;;;5.15;3.30;;;24.20;1.00;;;;;;5519067;22;20225;-96
2023/07/01 07:20:49;;;;;;;4.68;3.47;;;24.10;1.00;;;;;;5057539;28;20682;-96
2023/07/01 07:23:16;;;;;;;5.40;4.07;;;23.90;1.00;;;;;;5052906;28;20190;-96
2023/07/01 07:25:44;;;;;;;6.80;4.18;;;23.90;69.90;;;;;;5047502;28;20616;-92
2023/07/01 07:28:11;;;;;;;4.43;3.25;;;23.90;99.90;;;;;;5048566;28;20228;-96
2023/07/01 07:30:39;;;;;;;5.97;2.97;;;23.90;1.00;;;;;;5028624;28;20202;-93
2023/07/01 07:33:07;;;;;;;9.57;5.22;;;23.80;1.00;;;;;;5044222;28;20197;-93
2023/07/01 07:35:34;;;;;;;5.80;3.60;;;23.80;1.00;;;;;;5044646;28;20201;-93
2023/07/01 07:38:01;;;;;;;4.80;2.92;;;23.80;1.00;;;;;;5042712;28;20217;-95
2023/07/01 07:40:29;;;;;;;12.32;3.58;;;23.80;1.00;;;;;;5051906;28;20626;-94
2023/07/01 07:42:57;;;;;;;7.72;3.03;;;23.70;1.00;;;;;;5054492;28;20198;-95
2023/07/01 07:45:24;;;;;;;3.53;2.72;;;23.60;1.00;;;;;;5040814;28;20224;-95
2023/07/01 07:47:51;;;;;;;5.90;2.95;;;23.70;1.00;;;;;;5053157;28;20197;-96
2023/07/01 07:50:21;;;;;;;5.80;2.42;;;23.90;1.00;;;;;;5057223;28;20201;-96
2023/07/01 07:52:49;;;;;;;6.50;2.53;;;24.10;1.00;;;;;;5055256;28;20181;-96
2023/07/01 07:55:16;;;;;;;3.92;2.20;;;24.40;1.00;;;;;;5055659;28;20232;-96
2023/07/01 07:57:46;;;;;;;9.60;2.42;;;24.60;1.00;;;;;;5056368;28;20197;-96
2023/07/01 08:00:16;;;;;;;6.88;2.13;;;24.80;1.00;;;;;;5366681;23;20292;-96
2023/07/01 08:02:47;;;;;;;4.32;2.00;;;24.90;1.00;;;;;;5564608;23;20245;-96
2023/07/01 08:05:16;;;;;;;7.40;1.70;;;24.90;1.00;;;;;;5057223;28;20166;-96
2023/07/01 08:12:54;;;;;;;3.42;2.00;;;24.80;1.00;;;;;;5267741;22;20213;-96
2023/07/01 08:15:23;;;;;;;4.97;1.70;;;24.80;1.00;;;;;;5055911;28;20197;-96
2023/07/01 08:17:50;;;;;;;4.85;2.00;;;24.80;1.00;;;;;;5048809;28;20194;-96
2023/07/01 08:20:17;;;;;;;4.63;1.88;;;24.90;1.00;;;;;;5053991;28;20220;-95
2023/07/01 08:22:44;;;;;;;6.50;2.22;;;24.80;1.00;;;;;;5052141;28;20288;-95
2023/07/01 08:25:11;;;;;;;4.85;2.00;;;24.70;1.00;;;;;;5053141;28;20197;-96
2023/07/01 08:27:38;;;;;;;2.78;1.60;;;24.50;1.00;;;;;;5039883;28;20220;-94
2023/07/01 08:30:07;;;;;;;5.82;2.30;;;24.40;1.00;;;;;;5041519;28;20194;-94
2023/07/01 08:32:35;;;;;;;4.85;1.70;;;24.50;1.00;;;;;;5049042;28;20690;-92
2023/07/01 08:35:02;;;;;;;3.80;1.63;;;24.70;1.00;;;;;;5040126;28;20201;-95
2023/07/01 08:37:30;;;;;;;7.05;1.70;;;24.70;1.00;;;;;;5039609;28;20201;-95
2023/07/01 08:39:57;;;;;;;3.85;1.73;;;24.90;1.00;;;;;;5039370;28;20217;-93
2023/07/01 08:42:28;;;;;;;2.95;1.80;;;25.10;1.00;;;;;;5038577;28;20197;-94
2023/07/01 08:44:56;;;;;;;2.88;2.05;;;25.30;1.00;;;;;;5038600;28;20260;-93
2023/07/01 08:47:26;;;;;;;2.45;1.98;;;25.40;99.90;;;;;;5041291;28;20255;-93
2023/07/01 08:49:59;;;;;;;5.30;1.63;;;25.60;99.90;;;;;;5041868;28;20251;-94
2023/07/01 08:52:37;;;;;;;5.32;1.63;;;25.70;99.90;;;;;;5042705;28;20206;-93
2023/07/01 08:55:05;;;;;;;1.98;1.60;;;25.90;99.90;;;;;;5043061;28;20185;-93
2023/07/01 08:57:32;;;;;;;3.35;1.67;;;26.10;99.90;;;;;;5042108;28;20225;-95
2023/07/01 08:59:59;;;;;;;11.13;1.80;;;26.30;99.90;;;;;;5045671;28;20221;-94
2023/07/01 09:02:27;;;;;;;7.70;1.67;;;26.40;99.90;;;;;;5046180;28;20224;-95
2023/07/01 09:04:55;;;;;;;5.93;1.67;;;26.30;99.90;;;;;;5047777;28;20209;-95
2023/07/01 09:07:23;;;;;;;2.60;1.70;;;26.20;99.90;;;;;;5046532;28;20201;-94
2023/07/01 09:09:50;;;;;;;3.47;2.50;;;26.10;99.90;;;;;;5045201;28;20257;-95
2023/07/01 09:12:17;;;;;;;4.70;2.70;;;26.20;99.90;;;;;;5026698;28;20222;-94
2023/07/01 09:15:00;;;;;;;3.22;2.00;;;26.30;99.90;;;;;;5032810;28;20694;-96
2023/07/01 09:17:29;;;;;;;2.70;1.60;;;26.40;99.90;;;;;;5038339;28;20209;-94
2023/07/01 09:19:58;;;;;;;3.35;1.75;;;26.40;99.90;;;;;;5042301;28;20279;-96
2023/07/01 09:22:25;;;;;;;32.85;10.27;;;26.30;99.90;;;;;;5112388;22;20254;-94
2023/07/01 09:24:53;;;;;;;6.15;3.03;;;26.40;99.90;;;;;;5001565;28;20195;-95
2023/07/01 09:27:20;;;;;;;4.25;2.22;;;26.60;99.90;;;;;;5000419;28;20223;-93
2023/07/01 09:29:47;;;;;;;3.42;2.20;;;26.60;99.90;;;;;;4998726;28;20218;-93
2023/07/01 09:32:28;;;;;;;4.65;2.20;;;26.70;99.90;;;;;;4994500;28;20650;-93
2023/07/01 09:34:57;;;;;;;5.63;2.40;;;26.90;99.90;;;;;;5001140;28;20190;-94
2023/07/01 09:37:26;;;;;;;3.05;2.13;;;27.00;99.90;;;;;;4989760;28;20192;-92
2023/07/01 09:39:53;;;;;;;6.82;2.53;;;26.90;99.90;;;;;;4997573;28;20215;-92
2023/07/01 09:42:21;;;;;;;3.28;2.80;;;26.70;99.90;;;;;;4998928;28;20261;-96
2023/07/01 09:45:06;;;;;;;13.98;6.22;;;26.50;99.90;;;;;;5014934;28;20198;-95
2023/07/01 09:47:34;;;;;;;18.50;13.82;;;26.10;99.90;;;;;;5008926;28;20195;-96
2023/07/01 09:50:02;;;;;;;17.52;13.30;;;25.70;99.90;;;;;;5012210;28;20673;-93
2023/07/01 09:52:37;;;;;;;8.00;7.13;;;25.60;99.90;;;;;;5013350;28;20226;-95
2023/07/01 09:55:05;;;;;;;11.30;9.18;;;25.50;99.90;;;;;;5007862;28;20202;-94
2023/07/01 09:57:33;;;;;;;8.10;6.95;;;25.50;99.90;;;;;;4989108;28;20200;-96
2023/07/01 10:00:03;;;;;;;5.10;4.63;;;25.40;99.90;;;;;;5002877;28;20214;-95
2023/07/01 10:02:30;;;;;;;8.98;7.90;;;25.30;99.90;;;;;;4999743;28;20199;-95
2023/07/01 10:04:58;;;;;;;5.88;4.00;;;25.40;99.90;;;;;;4983409;28;20196;-93
2023/07/01 10:07:26;;;;;;;6.55;4.90;;;25.50;99.90;;;;;;4989513;28;20208;-95
2023/07/01 10:09:55;;;;;;;4.93;2.70;;;25.60;99.90;;;;;;4998698;28;20222;-94
2023/07/01 10:12:23;;;;;;;3.10;2.80;;;25.90;99.90;;;;;;5006805;28;20712;-96
2023/07/01 10:14:52;;;;;;;4.40;2.70;;;26.10;99.90;;;;;;5010405;28;20211;-95
2023/07/01 10:17:20;;;;;;;5.53;3.10;;;26.30;99.90;;;;;;5010795;28;20207;-95
2023/07/01 10:19:48;;;;;;;4.07;3.20;;;26.40;99.90;;;;;;5011966;28;20223;-95
2023/07/01 10:22:26;;;;;;;3.40;2.65;;;26.50;99.90;;;;;;5003338;28;20258;-95
2023/07/01 10:25:02;;;;;;;3.83;3.03;;;26.80;99.90;;;;;;4997578;28;20308;-95
2023/07/01 10:28:15;;;;;;;4.03;3.15;;;26.80;99.90;;;;;;5010867;28;20286;-95
2023/07/01 10:31:10;;;;;;;4.18;3.08;;;26.90;99.90;;;;;;5002255;28;20183;-93
2023/07/01 10:33:57;;;;;;;4.03;3.15;;;27.00;99.90;;;;;;4991420;28;20283;-96
2023/07/01 10:36:25;;;;;;;3.75;3.00;;;27.00;99.90;;;;;;5009780;28;20262;-95
2023/07/01 10:38:52;;;;;;;5.88;3.25;;;27.00;99.90;;;;;;5008845;28;20272;-96
2023/07/01 10:41:52;;;;;;;4.95;3.20;;;27.00;99.90;;;;;;5010561;28;20579;-96
2023/07/01 10:44:26;;;;;;;3.30;3.00;;;27.00;99.90;;;;;;5014003;28;20205;-95
2023/07/01 10:47:18;;;;;;;3.15;2.63;;;27.10;99.90;;;;;;5014891;28;20191;-96
2023/07/01 10:50:07;;;;;;;4.55;2.85;;;27.10;99.90;;;;;;5008291;28;20605;-91
2023/07/01 10:52:54;;;;;;;7.25;3.85;;;27.20;99.90;;;;;;4982907;28;20289;-86
2023/07/01 10:55:35;;;;;;;4.93;3.65;;;27.20;99.90;;;;;;4992278;28;20245;-86
2023/07/01 10:58:20;;;;;;;10.20;9.20;;;26.90;99.90;;;;;;4981861;28;20191;-86
2023/07/01 11:00:48;;;;;;;6.50;5.88;;;26.70;99.90;;;;;;4991017;28;20241;-86
2023/07/01 11:03:54;;;;;;;5.88;3.80;;;26.60;99.90;;;;;;4990190;28;20202;-87
2023/07/01 11:06:23;;;;;;;5.72;3.33;;;26.40;99.90;;;;;;5009381;28;20281;-90
2023/07/01 11:08:56;;;;;;;3.60;3.30;;;26.30;99.90;;;;;;5013368;28;20199;-87
2023/07/01 11:11:26;;;;;;;4.22;3.65;;;26.30;99.90;;;;;;5009480;28;20203;-89
2023/07/01 11:14:00;;;;;;;5.93;3.25;;;26.60;99.90;;;;;;5010408;28;20206;-89
2023/07/01 11:16:28;;;;;;;3.97;3.50;;;26.90;99.90;;;;;;5010677;28;20269;-90
2023/07/01 11:18:56;;;;;;;4.07;3.67;;;26.80;99.90;;;;;;4997810;28;20203;-86
2023/07/01 11:21:24;;;;;;;6.82;4.68;;;26.70;99.90;;;;;;4987277;28;20255;-85
2023/07/01 11:23:53;;;;;;;3.75;3.30;;;26.70;99.90;;;;;;4992534;28;20281;-86
2023/07/01 11:26:20;;;;;;;3.95;3.45;;;27.00;99.90;;;;;;4987810;28;20203;-85
2023/07/01 11:28:47;;;;;;;5.53;4.88;;;27.10;99.90;;;;;;4992808;28;20198;-85
2023/07/01 11:31:17;;;;;;;3.95;3.55;;;27.20;99.90;;;;;;4991704;28;20191;-85
2023/07/01 11:33:45;;;;;;;4.50;3.85;;;27.00;99.90;;;;;;4988597;28;20197;-85
2023/07/01 11:36:14;;;;;;;5.90;3.80;;;26.60;99.90;;;;;;4984298;28;20214;-85
2023/07/01 11:38:44;;;;;;;3.80;3.50;;;26.40;99.90;;;;;;4981638;28;20203;-85
2023/07/01 11:41:14;;;;;;;4.80;3.80;;;26.50;99.90;;;;;;4991545;28;20289;-85
2023/07/01 11:43:41;;;;;;;3.95;3.55;;;26.70;99.90;;;;;;4981051;28;20203;-85
2023/07/01 11:46:08;;;;;;;5.68;3.90;;;26.70;99.90;;;;;;4990955;28;20197;-86
2023/07/01 11:48:36;;;;;;;6.13;4.20;;;26.80;99.90;;;;;;4990698;28;20199;-86
2023/07/01 11:51:03;;;;;;;5.35;3.60;;;27.00;99.90;;;;;;4984944;28;20459;-85
2023/07/01 11:53:30;;;;;;;6.65;3.65;;;27.30;99.90;;;;;;4988664;28;20204;-86
2023/07/01 11:55:58;;;;;;;5.40;3.33;;;27.50;99.90;;;;;;4989749;28;20206;-86
2023/07/01 11:58:29;;;;;;;4.20;3.22;;;27.60;99.90;;;;;;4991063;28;20257;-86
2023/07/01 12:00:56;;;;;;;6.90;3.65;;;27.60;99.90;;;;;;4991669;28;20221;-86
2023/07/01 12:03:23;;;;;;;5.90;3.60;;;27.30;99.90;;;;;;4991585;28;20572;-86
2023/07/01 12:05:51;;;;;;;5.70;4.13;;;27.00;99.90;;;;;;4990851;28;20669;-85
2023/07/01 12:08:18;;;;;;;4.43;3.75;;;26.80;99.90;;;;;;4985151;28;20192;-86
2023/07/01 12:10:45;;;;;;;8.07;3.45;;;26.70;99.90;;;;;;4982357;28;20207;-86
2023/07/01 12:13:30;;;;;;;5.40;3.90;;;26.60;99.90;;;;;;4980699;28;20196;-86
2023/07/01 12:15:58;;;;;;;4.82;4.10;;;26.60;99.90;;;;;;4982308;28;20196;-85
2023/07/01 12:18:27;;;;;;;8.90;3.78;;;26.70;99.90;;;;;;4985361;28;20203;-85
2023/07/01 12:20:55;;;;;;;6.20;5.20;;;26.80;99.90;;;;;;4984954;28;20219;-86
2023/07/01 12:23:22;;;;;;;4.00;3.60;;;26.80;99.90;;;;;;4984906;28;20191;-85
2023/07/01 12:25:49;;;;;;;3.83;3.53;;;26.80;99.90;;;;;;4982467;28;20191;-85
2023/07/01 12:28:16;;;;;;;4.10;3.40;;;26.80;99.90;;;;;;4980440;28;20681;-86
2023/07/01 12:30:43;;;;;;;6.97;3.97;;;26.80;99.90;;;;;;4984006;28;20199;-85
2023/07/01 12:33:10;;;;;;;6.35;3.63;;;26.90;99.90;;;;;;4984977;28;20200;-86
2023/07/01 12:35:39;;;;;;;8.95;5.20;;;26.80;99.90;;;;;;4985008;28;20222;-85
2023/07/01 12:38:11;;;;;;;8.93;3.60;;;26.80;99.90;;;;;;4984498;28;20213;-85
2023/07/01 12:40:37;;;;;;;8.27;3.28;;;26.90;99.90;;;;;;4980507;28;20215;-85
2023/07/01 12:43:06;;;;;;;4.10;3.15;;;27.00;99.90;;;;;;4996328;28;20575;-85
2023/07/01 12:45:33;;;;;;;5.57;3.28;;;27.00;99.90;;;;;;4984550;28;20195;-85
2023/07/01 12:48:00;;;;;;;3.80;3.40;;;27.10;99.90;;;;;;4984684;28;20199;-85
2023/07/01 12:50:26;;;;;;;6.47;3.40;;;27.10;99.90;;;;;;4984692;28;20187;-85
2023/07/01 12:52:54;;;;;;;6.90;3.90;;;27.10;99.90;;;;;;4982375;28;20195;-85
2023/07/01 12:55:22;;;;;;;6.28;3.60;;;27.20;99.90;;;;;;4979849;28;20262;-85
2023/07/01 12:57:48;;;;;;;4.00;3.40;;;27.20;99.90;;;;;;4993890;28;20191;-85
2023/07/01 13:00:16;;;;;;;7.28;3.47;;;27.20;99.90;;;;;;4991123;28;20226;-85
2023/07/01 13:02:44;;;;;;;4.72;3.55;;;27.30;99.90;;;;;;4991034;28;20202;-86
2023/07/01 13:05:14;;;;;;;5.10;3.60;;;27.30;99.90;;;;;;4984388;28;20242;-86
2023/07/01 13:07:40;;;;;;;6.43;3.80;;;27.30;99.90;;;;;;4979104;28;20281;-85